PAFM

Details ICAO PAFM (ABL)
Name AMBLER
Region USA (Alaska)
Timezone America/Anchorage (UTC-9.0)
Plans Departing 1
Arriving 0
Stats Elevation 334 ft / 102 m (AMSL)
Location 67.106492° -157.857749°
Runways 2
Magnetic Variation 13.757° E
Sunrise 2017-12-16 21:44:03 UTC / 2017-12-16 12:44:03 Local
Sunset 2017-12-16 23:13:16 UTC / 2017-12-16 14:13:16 Local
Advertisement - Login to hide

Runways

ID Width Length Bearing (true) Bearing (mag) Surface Threshold Offset Overrun Length
09 59 ft / 18 m 2,392 ft / 729 m 112.44° 98.68° Gravel 0 ft / 0 m 240 ft / 73 m
18 59 ft / 18 m 2,992 ft / 912 m 202.41° 188.65° Gravel 0 ft / 0 m 240 ft / 73 m
27 59 ft / 18 m 2,392 ft / 729 m 292.46° 278.70° Gravel 0 ft / 0 m 240 ft / 73 m
36 59 ft / 18 m 2,992 ft / 912 m 22.40° 8.64° Gravel 0 ft / 0 m 240 ft / 73 m

Map

Weather


0- 5 10 15 20 25 30 35+ Temperature / ° C

Clouds and Precipitation
Forecast for 2017-12-17 12:00 UTC. Updated an hour ago

Ground ~20,000 ft ~40,000 ft Winds

METAR

PAFM 170956Z AUTO 02011KT 2SM -SN BR BKN025 OVC032 M10/M12 A2941 RMK AO2 SLP974 P0000 T11001117 FZRANO

TAF

Not found

Frequencies

Recorded 132.10 MHz AWOS 3
Unicom 122.70 MHz CTAF
Warning: Do not use this data for real-world aviation or navigation. No guarantee of current accuracy is given.